Map

Track Data

SID SEASON NUMBER BASIN SUBBASIN NAME ISO_TIME NATURE LAT LON WMO_WIND WMO_PRES WMO_AGENCY TRACK_TYPE DIST2LAND LANDFALL IFLAG USA_AGENCY USA_ATCF_ID USA_LAT USA_LON USA_RECORD USA_STATUS USA_WIND USA_PRES USA_SSHS USA_R34_NE USA_R34_SE USA_R34_SW USA_R34_NW USA_R50_NE USA_R50_SE USA_R50_SW USA_R50_NW USA_R64_NE USA_R64_SE USA_R64_SW USA_R64_NW USA_POCI USA_ROCI USA_RMW USA_EYE TOKYO_LAT TOKYO_LON TOKYO_GRADE TOKYO_WIND TOKYO_PRES TOKYO_R50_DIR TOKYO_R50_LONG TOKYO_R50_SHORT TOKYO_R30_DIR TOKYO_R30_LONG TOKYO_R30_SHORT TOKYO_LAND CMA_LAT CMA_LON CMA_CAT CMA_WIND CMA_PRES HKO_LAT HKO_LON HKO_CAT HKO_WIND HKO_PRES NEWDELHI_LAT NEWDELHI_LON NEWDELHI_GRADE NEWDELHI_WIND NEWDELHI_PRES NEWDELHI_CI NEWDELHI_DP NEWDELHI_POCI REUNION_LAT REUNION_LON REUNION_TYPE REUNION_WIND REUNION_PRES REUNION_TNUM REUNION_CI REUNION_RMW REUNION_R34_NE REUNION_R34_SE REUNION_R34_SW REUNION_R34_NW REUNION_R50_NE REUNION_R50_SE REUNION_R50_SW REUNION_R50_NW REUNION_R64_NE REUNION_R64_SE REUNION_R64_SW REUNION_R64_NW BOM_LAT BOM_LON BOM_TYPE BOM_WIND BOM_PRES BOM_TNUM BOM_CI BOM_RMW BOM_R34_NE BOM_R34_SE BOM_R34_SW BOM_R34_NW BOM_R50_NE BOM_R50_SE BOM_R50_SW BOM_R50_NW BOM_R64_NE BOM_R64_SE BOM_R64_SW BOM_R64_NW BOM_ROCI BOM_POCI BOM_EYE BOM_POS_METHOD BOM_PRES_METHOD NADI_LAT NADI_LON NADI_CAT NADI_WIND NADI_PRES WELLINGTON_LAT WELLINGTON_LON WELLINGTON_WIND WELLINGTON_PRES DS824_LAT DS824_LON DS824_STAGE DS824_WIND DS824_PRES TD9636_LAT TD9636_LON TD9636_STAGE TD9636_WIND TD9636_PRES TD9635_LAT TD9635_LON TD9635_WIND TD9635_PRES TD9635_ROCI NEUMANN_LAT NEUMANN_LON NEUMANN_CLASS NEUMANN_WIND NEUMANN_PRES MLC_LAT MLC_LON MLC_CLASS MLC_WIND MLC_PRES USA_GUST BOM_GUST BOM_GUST_PER REUNION_GUST REUNION_GUST_PER USA_SEAHGT USA_SEARAD_NE USA_SEARAD_SE USA_SEARAD_SW USA_SEARAD_NW STORM_SPEED STORM_DIR
2011167N22089 2011 30 NI BB NOT_NAMED 2011-06-16 03:00:00 NR 21.5000 89.0000 25 986 newdelhi main 11 11 ____O_________ -1 21.5000 89.0000 D 25 986 1.50000 6 0 0
2011167N22089 2011 30 NI BB NOT_NAMED 2011-06-16 06:00:00 NR 21.5000 89.0000 25 986 newdelhi main 11 0 ____O_________ -1 21.5000 89.0000 DD 25 986 1.50000 6 2 0
2011167N22089 2011 30 NI BB NOT_NAMED 2011-06-16 09:00:00 NR 21.6989 89.0000 main 0 0 ____P_________ -1 21.6989 89.0000 DD 27 985 6 5 2
2011167N22089 2011 30 NI BB NOT_NAMED 2011-06-16 12:00:00 NR 22.0000 89.0000 30 984 newdelhi main 0 0 ____O_________ -1 22.0000 89.0000 DD 30 984 0.00000 6 6 0
2011167N22089 2011 30 NI BB NOT_NAMED 2011-06-16 15:00:00 NR 22.2875 89.0000 main 0 0 ____P_________ -1 22.2875 89.0000 DD 30 984 6 5 2
2011167N22089 2011 30 NI BB NOT_NAMED 2011-06-16 18:00:00 NR 22.5000 89.0000 30 984 newdelhi main 0 0 ____O_________ -1 22.5000 89.0000 DD 30 984 0.00000 6 2 4
2011167N22089 2011 30 NI BB NOT_NAMED 2011-06-16 21:00:00 NR 22.5341 89.0000 main 0 0 ____P_________ -1 22.5341 89.0000 DD 30 984 7 0 0
2011167N22089 2011 30 NI BB NOT_NAMED 2011-06-17 00:00:00 NR 22.5000 89.0000 30 984 newdelhi main 0 0 ____O_________ -1 22.5000 89.0000 DD 30 984 0.00000 8 0 149
2011167N22089 2011 30 NI BB NOT_NAMED 2011-06-17 03:00:00 NR 22.5000 89.0000 30 984 newdelhi main 0 0 ____O_________ -1 22.5000 89.0000 DD 30 984 0.00000 8 6 303
2011167N22089 2011 30 NI BB NOT_NAMED 2011-06-17 06:00:00 NR 22.8000 88.5000 35 978 newdelhi main 0 0 ____O_________ -1 22.8000 88.5000 DD 35 978 0.00000 12 9 301
2011167N22089 2011 30 NI BB NOT_NAMED 2011-06-17 09:00:00 NR 22.9544 88.1645 main 0 0 ____P_________ -1 22.9544 88.1645 DD 30 980 11 5 293
2011167N22089 2011 30 NI BB NOT_NAMED 2011-06-17 12:00:00 NR 23.0000 88.0000 25 982 newdelhi main 0 0 ____O_________ -1 23.0000 88.0000 DD 25 982 0.00000 10 2 292
2011167N22089 2011 30 NI BB NOT_NAMED 2011-06-17 15:00:00 NR 23.0149 87.9999 main 0 0 ____P_________ -1 23.0149 87.9999 DD 25 983 9 0 0
2011167N22089 2011 30 NI BB NOT_NAMED 2011-06-17 18:00:00 NR 23.0000 88.0000 25 984 newdelhi main 0 0 ____O_________ -1 23.0000 88.0000 DD 25 984 0.00000 8 2 264
2011167N22089 2011 30 NI BB NOT_NAMED 2011-06-17 21:00:00 NR 22.9999 87.8352 main 0 0 ____P_________ -1 22.9999 87.8352 DD 25 984 8 5 270
2011167N22089 2011 30 NI BB NOT_NAMED 2011-06-18 00:00:00 NR 23.0000 87.5000 25 984 newdelhi main 0 0 ____O_________ -1 23.0000 87.5000 DD 25 984 0.00000 8 8 270
2011167N22089 2011 30 NI BB NOT_NAMED 2011-06-18 03:00:00 NR 23.0000 87.0000 25 984 newdelhi main 0 0 ____O_________ -1 23.0000 87.0000 DD 25 984 0.00000 8 5 270
2011167N22089 2011 30 NI BB NOT_NAMED 2011-06-18 06:00:00 NR 23.0000 87.0000 25 984 newdelhi main 0 0 ____O_________ -1 23.0000 87.0000 DD 25 984 0.00000 8 0 90
2011167N22089 2011 30 NI BB NOT_NAMED 2011-06-18 09:00:00 NR 22.9999 87.0341 main 0 0 ____P_________ -1 22.9999 87.0341 DD 25 984 8 0 0
2011167N22089 2011 30 NI BB NOT_NAMED 2011-06-18 12:00:00 NR 23.0000 87.0000 25 984 newdelhi main 0 0 ____O_________ -1 23.0000 87.0000 DD 25 984 0.00000 8 2 270
2011167N22089 2011 30 NI BB NOT_NAMED 2011-06-18 15:00:00 NR 23.0001 86.7875 main 0 0 ____P_________ -1 23.0001 86.7875 DD 25 985 8 5 270
2011167N22089 2011 30 NI BB NOT_NAMED 2011-06-18 18:00:00 NR 23.0000 86.5000 25 986 newdelhi main 0 0 ____O_________ -1 23.0000 86.5000 DD 25 986 0.00000 8 5 257
2011167N22089 2011 30 NI BB NOT_NAMED 2011-06-18 21:00:00 NR 22.8975 86.3005 main 0 0 ____P_________ -1 22.8975 86.3005 DD 25 986 8 5 270
2011167N22089 2011 30 NI BB NOT_NAMED 2011-06-19 00:00:00 NR 23.0000 86.0000 25 986 newdelhi main 0 0 ____O_________ -1 23.0000 86.0000 DD 25 986 0.00000 8 10 309
2011167N22089 2011 30 NI BB NOT_NAMED 2011-06-19 03:00:00 NR 23.5000 85.5000 25 987 newdelhi main 0 0 ____O_________ -1 23.5000 85.5000 DD 25 987 0.00000 8 7 317
2011167N22089 2011 30 NI BB NOT_NAMED 2011-06-19 06:00:00 NR 23.5000 85.5000 25 987 newdelhi main 0 0 ____O_________ -1 23.5000 85.5000 DD 25 987 0.00000 8 2 270
2011167N22089 2011 30 NI BB NOT_NAMED 2011-06-19 09:00:00 NR 23.5001 85.3011 main 0 0 ____P_________ -1 23.5001 85.3011 DD 25 987 7 5 270
2011167N22089 2011 30 NI BB NOT_NAMED 2011-06-19 12:00:00 NR 23.5000 85.0000 25 987 newdelhi main 0 0 ____O_________ -1 23.5000 85.0000 DD 25 987 0.00000 7 5 270
2011167N22089 2011 30 NI BB NOT_NAMED 2011-06-19 15:00:00 NR 23.5000 84.7500 main 0 0 ____P_________ -1 23.5000 84.7500 DD 25 987 7 5 270
2011167N22089 2011 30 NI BB NOT_NAMED 2011-06-19 18:00:00 NR 23.5000 84.5000 25 987 newdelhi main 0 0 ____O_________ -1 23.5000 84.5000 DD 25 987 0.00000 7 4 264
2011167N22089 2011 30 NI BB NOT_NAMED 2011-06-19 21:00:00 NR 23.4588 84.3009 main 0 0 ____P_________ -1 23.4588 84.3009 DD 25 987 7 5 270
2011167N22089 2011 30 NI BB NOT_NAMED 2011-06-20 00:00:00 NR 23.5000 84.0000 25 987 newdelhi main 0 0 ____O_________ -1 23.5000 84.0000 DD 25 987 0.00000 7 8 288
2011167N22089 2011 30 NI BB NOT_NAMED 2011-06-20 03:00:00 NR 23.7000 83.5000 25 987 newdelhi main 0 0 ____O_________ -1 23.7000 83.5000 DD 25 987 0.00000 7 5 294
2011167N22089 2011 30 NI BB NOT_NAMED 2011-06-20 06:00:00 NR 23.7000 83.5000 20 990 newdelhi main 0 0 ____O_________ -1 23.7000 83.5000 D 20 990 0.00000 4 3 303
2011167N22089 2011 30 NI BB NOT_NAMED 2011-06-20 09:00:00 NR 23.8400 83.2673 main 0 0 ____P_________ -1 23.8400 83.2673 D 20 990 4 5 303
2011167N22089 2011 30 NI BB NOT_NAMED 2011-06-20 12:00:00 NR 24.0000 83.0000 20 990 newdelhi main 0 0 ____O_________ -1 24.0000 83.0000 D 20 990 0.00000 4 3 301
2011167N22089 2011 30 NI BB NOT_NAMED 2011-06-20 15:00:00 NR 23.9849 82.9998 main 0 0 ____P_________ -1 23.9849 82.9998 D 20 990 4 0 0
2011167N22089 2011 30 NI BB NOT_NAMED 2011-06-20 18:00:00 NR 24.0000 83.0000 20 990 newdelhi main 0 0 ____O_________ -1 24.0000 83.0000 D 20 990 0.00000 4 3 332
2011167N22089 2011 30 NI BB NOT_NAMED 2011-06-20 21:00:00 NR 24.2669 82.8355 main 0 0 ____P_________ -1 24.2669 82.8355 D 20 990 4 7 318
2011167N22089 2011 30 NI BB NOT_NAMED 2011-06-21 00:00:00 NR 24.5000 82.5000 20 990 newdelhi main 0 0 ____O_________ -1 24.5000 82.5000 D 20 990 0.00000 4 8 287
2011167N22089 2011 30 NI BB NOT_NAMED 2011-06-21 03:00:00 NR 24.5000 82.0000 20 990 newdelhi main 0 0 ____O_________ -1 24.5000 82.0000 D 20 990 0.00000 4 9 270
2011167N22089 2011 30 NI BB NOT_NAMED 2011-06-21 06:00:00 NR 24.5000 81.5000 20 990 newdelhi main 0 0 ____O_________ -1 24.5000 81.5000 D 20 990 0.00000 4 8 270
2011167N22089 2011 30 NI BB NOT_NAMED 2011-06-21 09:00:00 NR 24.4998 81.1648 main 0 0 ____P_________ -1 24.4998 81.1648 D 20 990 4 5 270
2011167N22089 2011 30 NI BB NOT_NAMED 2011-06-21 12:00:00 NR 24.5000 81.0000 20 990 newdelhi main 0 0 ____O_________ -1 24.5000 81.0000 D 20 990 0.00000 4 1 270
2011167N22089 2011 30 NI BB NOT_NAMED 2011-06-21 15:00:00 NR 24.4999 81.0000 main 0 0 ____P_________ -1 24.4999 81.0000 D 20 990 4 0 0
2011167N22089 2011 30 NI BB NOT_NAMED 2011-06-21 18:00:00 NR 24.5000 81.0000 20 990 newdelhi main 0 0 ____O_________ -1 24.5000 81.0000 D 20 990 0.00000 4 1 270
2011167N22089 2011 30 NI BB NOT_NAMED 2011-06-21 21:00:00 NR 24.4998 80.8352 main 0 0 ____P_________ -1 24.4998 80.8352 D 20 990 4 5 270
2011167N22089 2011 30 NI BB NOT_NAMED 2011-06-22 00:00:00 NR 24.5000 80.5000 20 991 newdelhi main 0 0 ____O_________ -1 24.5000 80.5000 D 20 991 0.00000 4 8 270
2011167N22089 2011 30 NI BB NOT_NAMED 2011-06-22 03:00:00 NR 24.5000 80.0000 20 992 newdelhi main 0 0 ____O_________ -1 24.5000 80.0000 D 20 992 0.00000 3 5 270
2011167N22089 2011 30 NI BB NOT_NAMED 2011-06-22 06:00:00 NR 24.5000 80.0000 20 992 newdelhi main 0 0 ____O_________ -1 24.5000 80.0000 D 20 992 0.00000 3 3 270
2011167N22089 2011 30 NI BB NOT_NAMED 2011-06-22 09:00:00 NR 24.5004 79.6216 main 0 0 ____P_________ -1 24.5004 79.6216 D 20 993 3 8 270
2011167N22089 2011 30 NI BB NOT_NAMED 2011-06-22 12:00:00 NR 24.5000 79.1000 20 994 newdelhi main 0 0 ____O_________ -1 24.5000 79.1000 D 20 994 0.00000 3 8 270
2011167N22089 2011 30 NI BB NOT_NAMED 2011-06-22 15:00:00 NR 24.4997 78.7386 main 0 0 ____P_________ -1 24.4997 78.7386 D 20 993 3 5 270
2011167N22089 2011 30 NI BB NOT_NAMED 2011-06-22 18:00:00 NR 24.5000 78.5000 20 992 newdelhi main 0 ____O_________ -1 24.5000 78.5000 D 20 992 0.00000 3 4 270

About IBTrACS Database

This database is a web-friendly format of International Best Track Archive for Climate Stewardship (IBTrACS), a global best track data archive curated by NOAA dating back to 1842.

Updated: 2021-10-08